Terminal Aerodrome Forecast
Issued by NWS

Home | Current Version | Previous Version | Text Only | Print | Product List | Glossary On
Versions: 1 2 3 4 5 6 7 8 9 10 11 12 13 14 15 16 17 18 19
000
FTUS42 KTBW 102100 AAE
TAFPIE
TAF AMD
KPIE 102107Z 1021/1118 14010KT P6SM VCTS SCT030CB
     FM102300 VRB03KT P6SM FEW030 BKN250
     FM111600 12004KT P6SM VCTS SCT035CB BKN150=

USA.gov is the U.S. government's official web portal to all federal, state and local government web resources and services.